sensor_id;sensor_type;location;lat;lon;timestamp;P1;durP1;ratioP1;P2;durP2;ratioP2
74788;SDS011;63313;48.258;12.518;2023-12-20T00:01:42;40.769999999999996;;;16.86;;
74788;SDS011;63313;48.258;12.518;2023-12-20T00:07:09;32.07;;;15.280000000000001;;
74788;SDS011;63313;48.258;12.518;2023-12-20T00:12:36;29.689999999999998;;;14.59;;
74788;SDS011;63313;48.258;12.518;2023-12-20T00:18:03;28.910000000000004;;;14.300000000000002;;
74788;SDS011;63313;48.258;12.518;2023-12-20T00:23:30;27.839999999999996;;;10.58;;
74788;SDS011;63313;48.258;12.518;2023-12-20T00:28:57;15.84;;;8.91;;
74788;SDS011;63313;48.258;12.518;2023-12-20T00:34:24;11.61;;;6.17;;
74788;SDS011;63313;48.258;12.518;2023-12-20T00:39:51;11.9;;;6.55;;
74788;SDS011;63313;48.258;12.518;2023-12-20T00:45:18;17.669999999999998;;;10.030000000000001;;
74788;SDS011;63313;48.258;12.518;2023-12-20T00:50:45;24.499999999999996;;;12.03;;
74788;SDS011;63313;48.258;12.518;2023-12-20T00:56:12;25.459999999999997;;;12.76;;
74788;SDS011;63313;48.258;12.518;2023-12-20T01:01:39;27.1;;;13.11;;
74788;SDS011;63313;48.258;12.518;2023-12-20T01:07:06;27.119999999999997;;;12.549999999999999;;
74788;SDS011;63313;48.258;12.518;2023-12-20T01:12:33;23.2;;;11.95;;
74788;SDS011;63313;48.258;12.518;2023-12-20T01:18:00;25.57;;;12.75;;
74788;SDS011;63313;48.258;12.518;2023-12-20T01:23:27;25.9;;;12.53;;
74788;SDS011;63313;48.258;12.518;2023-12-20T01:28:54;24.24;;;12.349999999999998;;
74788;SDS011;63313;48.258;12.518;2023-12-20T01:34:21;23.71;;;11.330000000000002;;
74788;SDS011;63313;48.258;12.518;2023-12-20T01:39:48;21.64;;;11.809999999999999;;
74788;SDS011;63313;48.258;12.518;2023-12-20T01:45:15;26.68;;;12.41;;
74788;SDS011;63313;48.258;12.518;2023-12-20T01:50:43;21.06;;;11.0;;
74788;SDS011;63313;48.258;12.518;2023-12-20T01:56:10;28.9;;;14.23;;
74788;SDS011;63313;48.258;12.518;2023-12-20T02:01:38;22.63;;;11.250000000000002;;
74788;SDS011;63313;48.258;12.518;2023-12-20T02:07:05;22.310000000000002;;;11.89;;
74788;SDS011;63313;48.258;12.518;2023-12-20T02:12:33;24.0;;;10.9;;
74788;SDS011;63313;48.258;12.518;2023-12-20T02:18:00;24.68;;;12.02;;
74788;SDS011;63313;48.258;12.518;2023-12-20T02:23:28;24.68;;;12.32;;
74788;SDS011;63313;48.258;12.518;2023-12-20T02:28:55;26.15;;;12.07;;
74788;SDS011;63313;48.258;12.518;2023-12-20T02:34:22;23.369999999999997;;;12.459999999999999;;
74788;SDS011;63313;48.258;12.518;2023-12-20T02:39:49;22.67;;;12.33;;
74788;SDS011;63313;48.258;12.518;2023-12-20T02:45:16;20.93;;;10.79;;
74788;SDS011;63313;48.258;12.518;2023-12-20T02:50:43;25.2;;;12.150000000000002;;
74788;SDS011;63313;48.258;12.518;2023-12-20T02:56:10;18.89;;;10.459999999999999;;
74788;SDS011;63313;48.258;12.518;2023-12-20T03:01:41;17.509999999999998;;;8.88;;
74788;SDS011;63313;48.258;12.518;2023-12-20T03:07:08;14.860000000000003;;;8.01;;
74788;SDS011;63313;48.258;12.518;2023-12-20T03:12:35;12.95;;;7.860000000000001;;
74788;SDS011;63313;48.258;12.518;2023-12-20T03:18:02;17.669999999999998;;;9.540000000000001;;
74788;SDS011;63313;48.258;12.518;2023-12-20T03:23:30;21.15;;;12.05;;
74788;SDS011;63313;48.258;12.518;2023-12-20T03:28:57;23.360000000000003;;;12.23;;
74788;SDS011;63313;48.258;12.518;2023-12-20T03:34:24;25.709999999999997;;;11.76;;
74788;SDS011;63313;48.258;12.518;2023-12-20T03:39:51;20.88;;;11.190000000000001;;
74788;SDS011;63313;48.258;12.518;2023-12-20T03:45:18;21.74;;;11.620000000000001;;
74788;SDS011;63313;48.258;12.518;2023-12-20T03:50:45;18.589999999999996;;;10.940000000000001;;
74788;SDS011;63313;48.258;12.518;2023-12-20T03:56:12;21.11;;;10.2;;
74788;SDS011;63313;48.258;12.518;2023-12-20T04:01:42;18.759999999999998;;;11.01;;
74788;SDS011;63313;48.258;12.518;2023-12-20T04:07:09;21.9;;;11.45;;
74788;SDS011;63313;48.258;12.518;2023-12-20T04:12:36;19.060000000000002;;;11.51;;
74788;SDS011;63313;48.258;12.518;2023-12-20T04:18:04;20.65;;;11.01;;
74788;SDS011;63313;48.258;12.518;2023-12-20T04:23:31;21.840000000000003;;;10.19;;
74788;SDS011;63313;48.258;12.518;2023-12-20T04:28:58;17.200000000000003;;;9.02;;
74788;SDS011;63313;48.258;12.518;2023-12-20T04:34:25;16.09;;;9.330000000000002;;
74788;SDS011;63313;48.258;12.518;2023-12-20T04:39:52;15.99;;;8.330000000000002;;
74788;SDS011;63313;48.258;12.518;2023-12-20T04:45:19;2.47;;;2.3400000000000007;;
74788;SDS011;63313;48.258;12.518;2023-12-20T04:50:46;3.3599999999999994;;;2.39;;
74788;SDS011;63313;48.258;12.518;2023-12-20T04:56:13;3.8300000000000005;;;2.55;;
74788;SDS011;63313;48.258;12.518;2023-12-20T05:01:40;3.3300000000000005;;;2.5100000000000002;;
74788;SDS011;63313;48.258;12.518;2023-12-20T05:07:07;3.13;;;2.41;;
74788;SDS011;63313;48.258;12.518;2023-12-20T05:12:34;3.0300000000000002;;;2.2;;
74788;SDS011;63313;48.258;12.518;2023-12-20T05:18:02;2.8;;;2.13;;
74788;SDS011;63313;48.258;12.518;2023-12-20T05:23:29;2.16;;;1.97;;
74788;SDS011;63313;48.258;12.518;2023-12-20T05:28:56;2.12;;;1.8299999999999996;;
74788;SDS011;63313;48.258;12.518;2023-12-20T05:34:23;2.55;;;2.09;;
74788;SDS011;63313;48.258;12.518;2023-12-20T05:39:50;6.58;;;2.5000000000000004;;
74788;SDS011;63313;48.258;12.518;2023-12-20T05:45:17;2.21;;;1.9100000000000001;;
74788;SDS011;63313;48.258;12.518;2023-12-20T05:50:44;4.3100000000000005;;;3.2300000000000004;;
74788;SDS011;63313;48.258;12.518;2023-12-20T05:56:11;2.6500000000000004;;;2.36;;
74788;SDS011;63313;48.258;12.518;2023-12-20T06:01:38;3.35;;;2.5700000000000003;;
74788;SDS011;63313;48.258;12.518;2023-12-20T06:07:05;4.2;;;2.86;;
74788;SDS011;63313;48.258;12.518;2023-12-20T06:12:32;7.07;;;4.07;;
74788;SDS011;63313;48.258;12.518;2023-12-20T06:17:59;5.69;;;3.4900000000000007;;
74788;SDS011;63313;48.258;12.518;2023-12-20T06:23:26;8.59;;;5.17;;
74788;SDS011;63313;48.258;12.518;2023-12-20T06:28:53;4.2700000000000005;;;3.3600000000000003;;
74788;SDS011;63313;48.258;12.518;2023-12-20T06:34:20;7.419999999999999;;;3.9900000000000007;;
74788;SDS011;63313;48.258;12.518;2023-12-20T06:39:47;4.720000000000001;;;4.08;;
74788;SDS011;63313;48.258;12.518;2023-12-20T06:45:14;7.37;;;4.83;;
74788;SDS011;63313;48.258;12.518;2023-12-20T06:50:41;9.120000000000001;;;4.390000000000001;;
74788;SDS011;63313;48.258;12.518;2023-12-20T06:56:10;5.779999999999999;;;3.8699999999999997;;
74788;SDS011;63313;48.258;12.518;2023-12-20T07:01:37;9.389999999999999;;;4.319999999999999;;
74788;SDS011;63313;48.258;12.518;2023-12-20T07:07:04;9.16;;;4.2700000000000005;;
74788;SDS011;63313;48.258;12.518;2023-12-20T07:12:31;9.129999999999999;;;4.63;;
74788;SDS011;63313;48.258;12.518;2023-12-20T07:17:58;4.879999999999999;;;3.37;;
74788;SDS011;63313;48.258;12.518;2023-12-20T07:23:25;4.2;;;3.31;;
74788;SDS011;63313;48.258;12.518;2023-12-20T07:28:52;8.67;;;3.65;;
74788;SDS011;63313;48.258;12.518;2023-12-20T07:34:20;4.279999999999999;;;3.56;;
74788;SDS011;63313;48.258;12.518;2023-12-20T07:39:47;6.960000000000001;;;3.85;;
74788;SDS011;63313;48.258;12.518;2023-12-20T07:45:14;7.389999999999999;;;3.3200000000000003;;
74788;SDS011;63313;48.258;12.518;2023-12-20T07:50:41;4.04;;;2.58;;
74788;SDS011;63313;48.258;12.518;2023-12-20T07:56:16;3.44;;;2.7299999999999995;;
74788;SDS011;63313;48.258;12.518;2023-12-20T08:01:43;3.8899999999999997;;;2.94;;
74788;SDS011;63313;48.258;12.518;2023-12-20T08:07:10;3.7600000000000002;;;2.97;;
74788;SDS011;63313;48.258;12.518;2023-12-20T08:12:37;4.540000000000001;;;3.3199999999999994;;
74788;SDS011;63313;48.258;12.518;2023-12-20T08:18:04;13.729999999999999;;;3.3899999999999997;;
74788;SDS011;63313;48.258;12.518;2023-12-20T08:23:31;5.119999999999999;;;3.2399999999999998;;
74788;SDS011;63313;48.258;12.518;2023-12-20T08:28:58;6.07;;;3.1499999999999995;;
74788;SDS011;63313;48.258;12.518;2023-12-20T08:34:26;3.2699999999999996;;;2.9900000000000007;;
74788;SDS011;63313;48.258;12.518;2023-12-20T08:39:53;4.37;;;3.0100000000000002;;
74788;SDS011;63313;48.258;12.518;2023-12-20T08:45:20;5.45;;;3.5200000000000005;;
74788;SDS011;63313;48.258;12.518;2023-12-20T08:50:47;9.99;;;3.8199999999999994;;
74788;SDS011;63313;48.258;12.518;2023-12-20T08:56:14;4.140000000000001;;;2.95;;
74788;SDS011;63313;48.258;12.518;2023-12-20T09:01:41;5.34;;;2.54;;
74788;SDS011;63313;48.258;12.518;2023-12-20T09:07:20;3.3599999999999994;;;2.8899999999999997;;
74788;SDS011;63313;48.258;12.518;2023-12-20T09:12:47;2.96;;;2.63;;
74788;SDS011;63313;48.258;12.518;2023-12-20T09:18:14;4.130000000000001;;;2.43;;
74788;SDS011;63313;48.258;12.518;2023-12-20T09:23:41;5.29;;;3.5700000000000003;;
74788;SDS011;63313;48.258;12.518;2023-12-20T09:29:08;2.63;;;2.0100000000000002;;
74788;SDS011;63313;48.258;12.518;2023-12-20T09:34:35;4.5;;;2.29;;
74788;SDS011;63313;48.258;12.518;2023-12-20T09:40:02;2.23;;;1.8599999999999999;;
74788;SDS011;63313;48.258;12.518;2023-12-20T09:45:30;6.7299999999999995;;;3.46;;
74788;SDS011;63313;48.258;12.518;2023-12-20T09:50:57;1.9500000000000004;;;1.7899999999999998;;
74788;SDS011;63313;48.258;12.518;2023-12-20T09:56:24;1.8699999999999999;;;1.7400000000000002;;
74788;SDS011;63313;48.258;12.518;2023-12-20T10:01:52;2.4299999999999997;;;1.7899999999999998;;
74788;SDS011;63313;48.258;12.518;2023-12-20T10:07:21;1.9200000000000004;;;1.8199999999999998;;
74788;SDS011;63313;48.258;12.518;2023-12-20T10:13:00;1.46;;;1.4;;
74788;SDS011;63313;48.258;12.518;2023-12-20T10:18:28;2.07;;;1.8799999999999997;;
74788;SDS011;63313;48.258;12.518;2023-12-20T10:23:57;3.38;;;1.7400000000000002;;
74788;SDS011;63313;48.258;12.518;2023-12-20T10:29:25;2.41;;;2.2;;
74788;SDS011;63313;48.258;12.518;2023-12-20T10:34:52;4.05;;;2.0800000000000005;;
74788;SDS011;63313;48.258;12.518;2023-12-20T10:40:19;1.83;;;1.57;;
74788;SDS011;63313;48.258;12.518;2023-12-20T10:45:47;1.9899999999999998;;;1.7600000000000002;;
74788;SDS011;63313;48.258;12.518;2023-12-20T10:51:14;2.2699999999999996;;;2.1399999999999997;;
74788;SDS011;63313;48.258;12.518;2023-12-20T10:56:44;2.67;;;1.95;;
74788;SDS011;63313;48.258;12.518;2023-12-20T11:02:11;2.38;;;1.8399999999999999;;
74788;SDS011;63313;48.258;12.518;2023-12-20T11:07:39;4.81;;;2.48;;
74788;SDS011;63313;48.258;12.518;2023-12-20T11:13:08;2.4799999999999995;;;2.29;;
74788;SDS011;63313;48.258;12.518;2023-12-20T11:18:37;2.02;;;1.9;;
74788;SDS011;63313;48.258;12.518;2023-12-20T11:24:07;2.0;;;1.8699999999999999;;
74788;SDS011;63313;48.258;12.518;2023-12-20T11:29:34;2.38;;;2.1799999999999997;;
74788;SDS011;63313;48.258;12.518;2023-12-20T11:35:16;3.18;;;2.6100000000000003;;
74788;SDS011;63313;48.258;12.518;2023-12-20T11:40:43;2.32;;;2.13;;
74788;SDS011;63313;48.258;12.518;2023-12-20T11:46:10;2.4699999999999998;;;2.27;;
74788;SDS011;63313;48.258;12.518;2023-12-20T11:51:40;3.16;;;2.65;;
74788;SDS011;63313;48.258;12.518;2023-12-20T11:57:07;3.6399999999999997;;;2.3;;
74788;SDS011;63313;48.258;12.518;2023-12-20T12:02:34;2.0000000000000004;;;1.7899999999999998;;
74788;SDS011;63313;48.258;12.518;2023-12-20T12:08:02;2.0799999999999996;;;1.7100000000000002;;
74788;SDS011;63313;48.258;12.518;2023-12-20T12:13:29;2.18;;;1.9100000000000001;;
74788;SDS011;63313;48.258;12.518;2023-12-20T12:18:56;3.88;;;1.9099999999999997;;
74788;SDS011;63313;48.258;12.518;2023-12-20T12:24:23;1.8599999999999999;;;1.58;;
74788;SDS011;63313;48.258;12.518;2023-12-20T12:30:05;2.31;;;1.94;;
74788;SDS011;63313;48.258;12.518;2023-12-20T12:35:33;1.51;;;1.44;;
74788;SDS011;63313;48.258;12.518;2023-12-20T12:41:01;1.6400000000000001;;;1.5399999999999998;;
74788;SDS011;63313;48.258;12.518;2023-12-20T12:46:28;1.3800000000000001;;;1.36;;
74788;SDS011;63313;48.258;12.518;2023-12-20T12:51:55;1.7599999999999998;;;1.6600000000000001;;
74788;SDS011;63313;48.258;12.518;2023-12-20T12:57:22;2.04;;;1.9299999999999997;;
74788;SDS011;63313;48.258;12.518;2023-12-20T13:02:49;2.0300000000000002;;;1.9299999999999997;;
74788;SDS011;63313;48.258;12.518;2023-12-20T13:08:16;3.1;;;1.7400000000000002;;
74788;SDS011;63313;48.258;12.518;2023-12-20T13:13:43;1.98;;;1.8799999999999997;;
74788;SDS011;63313;48.258;12.518;2023-12-20T13:19:10;2.55;;;2.37;;
74788;SDS011;63313;48.258;12.518;2023-12-20T13:24:37;3.0100000000000002;;;2.75;;
74788;SDS011;63313;48.258;12.518;2023-12-20T13:30:05;7.539999999999999;;;2.75;;
74788;SDS011;63313;48.258;12.518;2023-12-20T13:35:33;2.45;;;2.2300000000000004;;
74788;SDS011;63313;48.258;12.518;2023-12-20T13:41:00;2.2399999999999998;;;2.08;;
74788;SDS011;63313;48.258;12.518;2023-12-20T13:46:28;2.95;;;2.2499999999999996;;
74788;SDS011;63313;48.258;12.518;2023-12-20T13:51:55;4.52;;;2.29;;
74788;SDS011;63313;48.258;12.518;2023-12-20T13:57:22;5.4;;;3.1;;
74788;SDS011;63313;48.258;12.518;2023-12-20T14:02:49;5.36;;;2.48;;
74788;SDS011;63313;48.258;12.518;2023-12-20T14:08:16;7.410000000000001;;;4.9399999999999995;;
74788;SDS011;63313;48.258;12.518;2023-12-20T14:13:43;14.6;;;3.66;;
74788;SDS011;63313;48.258;12.518;2023-12-20T14:19:10;3.13;;;2.6700000000000004;;
74788;SDS011;63313;48.258;12.518;2023-12-20T14:24:37;2.8099999999999996;;;2.56;;
74788;SDS011;63313;48.258;12.518;2023-12-20T14:30:04;3.7299999999999995;;;2.37;;
74788;SDS011;63313;48.258;12.518;2023-12-20T14:35:32;3.4;;;2.2299999999999995;;
74788;SDS011;63313;48.258;12.518;2023-12-20T14:40:59;3.5200000000000005;;;1.6900000000000002;;
74788;SDS011;63313;48.258;12.518;2023-12-20T14:46:26;2.8500000000000005;;;1.4599999999999997;;
74788;SDS011;63313;48.258;12.518;2023-12-20T14:51:53;5.050000000000001;;;1.67;;
74788;SDS011;63313;48.258;12.518;2023-12-20T14:57:20;1.8699999999999999;;;1.5;;
74788;SDS011;63313;48.258;12.518;2023-12-20T15:02:48;6.65;;;2.1700000000000004;;
74788;SDS011;63313;48.258;12.518;2023-12-20T15:08:15;1.61;;;1.56;;
74788;SDS011;63313;48.258;12.518;2023-12-20T15:13:42;5.86;;;1.81;;
74788;SDS011;63313;48.258;12.518;2023-12-20T15:19:09;5.44;;;1.8200000000000003;;
74788;SDS011;63313;48.258;12.518;2023-12-20T15:24:36;4.4399999999999995;;;1.52;;
74788;SDS011;63313;48.258;12.518;2023-12-20T15:30:04;4.58;;;1.6300000000000001;;
74788;SDS011;63313;48.258;12.518;2023-12-20T15:35:31;4.49;;;1.44;;
74788;SDS011;63313;48.258;12.518;2023-12-20T15:40:58;2.89;;;1.54;;
74788;SDS011;63313;48.258;12.518;2023-12-20T15:46:25;5.539999999999999;;;1.7299999999999998;;
74788;SDS011;63313;48.258;12.518;2023-12-20T15:51:52;4.12;;;1.47;;
74788;SDS011;63313;48.258;12.518;2023-12-20T15:57:19;2.94;;;2.0500000000000003;;
74788;SDS011;63313;48.258;12.518;2023-12-20T16:02:46;4.1899999999999995;;;1.5;;
74788;SDS011;63313;48.258;12.518;2023-12-20T16:08:13;5.120000000000001;;;1.98;;
74788;SDS011;63313;48.258;12.518;2023-12-20T16:13:41;4.35;;;1.55;;
74788;SDS011;63313;48.258;12.518;2023-12-20T16:19:08;3.3800000000000003;;;1.73;;
74788;SDS011;63313;48.258;12.518;2023-12-20T16:24:35;3.9299999999999997;;;1.8900000000000001;;
74788;SDS011;63313;48.258;12.518;2023-12-20T16:30:02;5.0;;;2.2600000000000002;;
74788;SDS011;63313;48.258;12.518;2023-12-20T16:35:29;9.1;;;2.63;;
74788;SDS011;63313;48.258;12.518;2023-12-20T16:40:56;7.769999999999999;;;2.6000000000000005;;
74788;SDS011;63313;48.258;12.518;2023-12-20T16:46:23;7.25;;;2.62;;
74788;SDS011;63313;48.258;12.518;2023-12-20T16:51:50;4.22;;;2.3299999999999996;;
74788;SDS011;63313;48.258;12.518;2023-12-20T16:57:17;6.38;;;3.19;;
74788;SDS011;63313;48.258;12.518;2023-12-20T17:02:44;7.959999999999999;;;3.5500000000000007;;
74788;SDS011;63313;48.258;12.518;2023-12-20T17:08:11;6.959999999999999;;;3.7299999999999995;;
74788;SDS011;63313;48.258;12.518;2023-12-20T17:13:38;8.09;;;3.71;;
74788;SDS011;63313;48.258;12.518;2023-12-20T17:19:05;5.0600000000000005;;;2.4200000000000004;;
74788;SDS011;63313;48.258;12.518;2023-12-20T17:24:32;8.28;;;2.36;;
74788;SDS011;63313;48.258;12.518;2023-12-20T17:29:59;6.180000000000001;;;2.1;;
74788;SDS011;63313;48.258;12.518;2023-12-20T17:35:26;5.06;;;1.7;;
74788;SDS011;63313;48.258;12.518;2023-12-20T17:40:54;2.63;;;1.67;;
74788;SDS011;63313;48.258;12.518;2023-12-20T17:46:21;4.15;;;1.8800000000000001;;
74788;SDS011;63313;48.258;12.518;2023-12-20T17:51:48;2.17;;;1.69;;
74788;SDS011;63313;48.258;12.518;2023-12-20T17:57:15;5.5;;;2.1100000000000003;;
74788;SDS011;63313;48.258;12.518;2023-12-20T18:02:42;4.88;;;1.95;;
74788;SDS011;63313;48.258;12.518;2023-12-20T18:08:09;8.08;;;2.21;;
74788;SDS011;63313;48.258;12.518;2023-12-20T18:13:37;1.8800000000000003;;;1.47;;
74788;SDS011;63313;48.258;12.518;2023-12-20T18:19:04;4.1899999999999995;;;1.8799999999999997;;
74788;SDS011;63313;48.258;12.518;2023-12-20T18:24:30;3.34;;;1.75;;
74788;SDS011;63313;48.258;12.518;2023-12-20T18:29:57;3.79;;;1.9599999999999997;;
74788;SDS011;63313;48.258;12.518;2023-12-20T18:35:24;5.78;;;1.6599999999999997;;
74788;SDS011;63313;48.258;12.518;2023-12-20T18:40:51;4.430000000000001;;;1.94;;
74788;SDS011;63313;48.258;12.518;2023-12-20T18:46:19;9.41;;;2.02;;
74788;SDS011;63313;48.258;12.518;2023-12-20T18:51:46;4.46;;;2.0699999999999994;;
74788;SDS011;63313;48.258;12.518;2023-12-20T18:57:13;4.17;;;1.8399999999999999;;
74788;SDS011;63313;48.258;12.518;2023-12-20T19:02:40;2.2;;;1.77;;
74788;SDS011;63313;48.258;12.518;2023-12-20T19:08:07;4.5;;;1.65;;
74788;SDS011;63313;48.258;12.518;2023-12-20T19:13:34;4.39;;;1.7999999999999996;;
74788;SDS011;63313;48.258;12.518;2023-12-20T19:19:01;2.0100000000000002;;;1.29;;
74788;SDS011;63313;48.258;12.518;2023-12-20T19:24:28;4.54;;;2.1199999999999997;;
74788;SDS011;63313;48.258;12.518;2023-12-20T19:29:55;2.02;;;1.21;;
74788;SDS011;63313;48.258;12.518;2023-12-20T19:35:22;2.45;;;1.5599999999999998;;
74788;SDS011;63313;48.258;12.518;2023-12-20T19:40:49;4.35;;;2.31;;
74788;SDS011;63313;48.258;12.518;2023-12-20T19:46:17;4.529999999999999;;;2.65;;
74788;SDS011;63313;48.258;12.518;2023-12-20T19:51:44;1.9700000000000002;;;1.1200000000000003;;
74788;SDS011;63313;48.258;12.518;2023-12-20T19:57:11;1.8;;;1.03;;
74788;SDS011;63313;48.258;12.518;2023-12-20T20:02:38;2.18;;;1.02;;
74788;SDS011;63313;48.258;12.518;2023-12-20T20:08:05;2.35;;;1.3900000000000001;;
74788;SDS011;63313;48.258;12.518;2023-12-20T20:13:32;3.3;;;1.3800000000000001;;
74788;SDS011;63313;48.258;12.518;2023-12-20T20:18:59;4.38;;;1.6;;
74788;SDS011;63313;48.258;12.518;2023-12-20T20:24:26;5.21;;;1.42;;
74788;SDS011;63313;48.258;12.518;2023-12-20T20:29:53;4.32;;;1.03;;
74788;SDS011;63313;48.258;12.518;2023-12-20T20:35:20;5.1000000000000005;;;1.5100000000000002;;
74788;SDS011;63313;48.258;12.518;2023-12-20T20:40:47;2.3600000000000003;;;1.13;;
74788;SDS011;63313;48.258;12.518;2023-12-20T20:46:14;3.3900000000000006;;;1.22;;
74788;SDS011;63313;48.258;12.518;2023-12-20T20:51:42;3.41;;;1.3699999999999999;;
74788;SDS011;63313;48.258;12.518;2023-12-20T20:57:09;3.7399999999999998;;;1.18;;
74788;SDS011;63313;48.258;12.518;2023-12-20T21:02:36;6.32;;;2.2800000000000002;;
74788;SDS011;63313;48.258;12.518;2023-12-20T21:08:04;2.75;;;1.1699999999999997;;
74788;SDS011;63313;48.258;12.518;2023-12-20T21:13:31;1.9300000000000002;;;1.24;;
74788;SDS011;63313;48.258;12.518;2023-12-20T21:18:59;1.9599999999999997;;;1.1800000000000002;;
74788;SDS011;63313;48.258;12.518;2023-12-20T21:24:26;2.2199999999999998;;;1.1800000000000002;;
74788;SDS011;63313;48.258;12.518;2023-12-20T21:29:53;5.16;;;1.6199999999999999;;
74788;SDS011;63313;48.258;12.518;2023-12-20T21:35:20;1.7;;;1.3400000000000003;;
74788;SDS011;63313;48.258;12.518;2023-12-20T21:40:47;3.35;;;1.35;;
74788;SDS011;63313;48.258;12.518;2023-12-20T21:46:14;5.610000000000001;;;1.53;;
74788;SDS011;63313;48.258;12.518;2023-12-20T21:51:42;2.9699999999999998;;;1.4499999999999997;;
74788;SDS011;63313;48.258;12.518;2023-12-20T21:57:09;4.4799999999999995;;;1.7100000000000002;;
74788;SDS011;63313;48.258;12.518;2023-12-20T22:02:36;2.63;;;1.7;;
74788;SDS011;63313;48.258;12.518;2023-12-20T22:08:03;1.4000000000000001;;;1.23;;
74788;SDS011;63313;48.258;12.518;2023-12-20T22:13:30;2.55;;;1.53;;
74788;SDS011;63313;48.258;12.518;2023-12-20T22:18:59;2.08;;;1.5;;
74788;SDS011;63313;48.258;12.518;2023-12-20T22:24:27;2.75;;;1.1799999999999997;;
74788;SDS011;63313;48.258;12.518;2023-12-20T22:29:54;2.4299999999999997;;;1.19;;
74788;SDS011;63313;48.258;12.518;2023-12-20T22:35:21;2.1999999999999997;;;1.13;;
74788;SDS011;63313;48.258;12.518;2023-12-20T22:40:48;3.0500000000000003;;;1.06;;
74788;SDS011;63313;48.258;12.518;2023-12-20T22:46:15;1.19;;;0.8300000000000001;;
74788;SDS011;63313;48.258;12.518;2023-12-20T22:51:42;4.16;;;1.5699999999999998;;
74788;SDS011;63313;48.258;12.518;2023-12-20T22:57:09;1.73;;;1.0599999999999998;;
74788;SDS011;63313;48.258;12.518;2023-12-20T23:02:37;7.6;;;1.2899999999999998;;
74788;SDS011;63313;48.258;12.518;2023-12-20T23:08:04;2.38;;;1.3200000000000003;;
74788;SDS011;63313;48.258;12.518;2023-12-20T23:13:31;2.17;;;1.15;;
74788;SDS011;63313;48.258;12.518;2023-12-20T23:18:58;1.55;;;1.03;;
74788;SDS011;63313;48.258;12.518;2023-12-20T23:24:25;4.700000000000001;;;1.19;;
74788;SDS011;63313;48.258;12.518;2023-12-20T23:29:52;5.16;;;0.93;;
74788;SDS011;63313;48.258;12.518;2023-12-20T23:35:19;1.1199999999999999;;;0.8300000000000001;;
74788;SDS011;63313;48.258;12.518;2023-12-20T23:40:47;1.19;;;0.9400000000000001;;
74788;SDS011;63313;48.258;12.518;2023-12-20T23:46:14;2.33;;;0.9100000000000001;;
74788;SDS011;63313;48.258;12.518;2023-12-20T23:51:41;3.0599999999999996;;;1.15;;
74788;SDS011;63313;48.258;12.518;2023-12-20T23:57:08;3.08;;;0.86;;
